Terminal Aerodrome Forecast
Issued by NWS Shreveport, LA

Home | Current Version | Previous Version | Text Only | Print | Product List | Glossary On
Versions: 1 2 3 4 5 6 7 8 9 10 11 12 13 14 15 16 17 18 19 20
000
FTUS44 KSHV 240543
TAFMLU
TAF
KMLU 240543Z 2406/2506 19009KT P6SM SKC
     FM241000 18007KT P6SM SCT007 BKN012
      TEMPO 2413/2416 OVC007
     FM241800 21012KT P6SM BKN010 OVC020
     FM242100 24013G20KT P6SM SCT020 BKN030
     FM250000 28006KT P6SM BKN035
     FM250300 32010KT P6SM SCT035=

USA.gov is the U.S. government's official web portal to all federal, state and local government web resources and services.